Time,TemperatureF,DewpointF,PressureIn,WindDirection,WindDirectionDegrees,WindSpeedMPH,WindSpeedGustMPH,Humidity,HourlyPrecipIn,Conditions,Clouds,dailyrainin,SoftwareType,DateUTC
2013-05-09 00:02:00,60.0,47.0,29.95,SSW,198,0.0,0.0,61,0.00,,,0.00,,2013-05-09 05:02:00,
2013-05-09 00:12:00,60.0,47.0,29.95,SSW,198,0.0,0.0,61,0.00,,,0.00,,2013-05-09 05:12:00,
2013-05-09 00:22:00,60.0,47.0,29.94,SSW,198,0.0,0.0,61,0.00,,,0.00,,2013-05-09 05:22:00,
2013-05-09 00:32:00,60.0,47.0,29.94,SSW,198,0.0,0.0,62,0.00,,,0.00,,2013-05-09 05:32:00,
2013-05-09 00:42:00,60.0,47.0,29.94,SSW,198,0.0,0.0,62,0.00,,,0.00,,2013-05-09 05:42:00,
2013-05-09 00:52:00,60.0,47.0,29.93,SSW,198,0.0,0.0,63,0.00,,,0.00,,2013-05-09 05:52:00,
2013-05-09 01:02:00,59.0,47.0,29.93,SSW,198,0.0,0.0,64,0.00,,,0.00,,2013-05-09 06:02:00,
2013-05-09 01:12:00,59.0,47.0,29.93,SSW,198,0.0,0.0,64,0.00,,,0.00,,2013-05-09 06:12:00,
2013-05-09 01:21:00,59.0,47.0,29.93,SSW,198,0.0,0.0,65,0.00,,,0.00,,2013-05-09 06:21:00,
2013-05-09 01:32:00,58.0,47.0,29.93,SSW,198,0.0,0.0,66,0.00,,,0.00,,2013-05-09 06:32:00,
2013-05-09 01:42:00,58.0,47.0,29.93,SSW,198,0.0,0.0,66,0.00,,,0.00,,2013-05-09 06:42:00,
2013-05-09 01:52:00,58.0,47.0,29.92,SSW,198,0.0,0.0,67,0.00,,,0.00,,2013-05-09 06:52:00,
2013-05-09 02:01:00,58.0,47.0,29.93,SSW,198,0.0,0.0,68,0.00,,,0.00,,2013-05-09 07:01:00,
2013-05-09 02:12:00,57.0,47.0,29.92,SSW,198,0.0,0.0,68,0.00,,,0.00,,2013-05-09 07:12:00,
2013-05-09 02:21:00,57.0,47.0,29.92,SSW,198,0.0,0.0,68,0.00,,,0.00,,2013-05-09 07:21:00,
2013-05-09 02:32:00,57.0,47.0,29.93,SSW,198,0.0,0.0,69,0.00,,,0.00,,2013-05-09 07:32:00,
2013-05-09 02:42:00,57.0,47.0,29.93,SSW,198,0.0,0.0,69,0.00,,,0.00,,2013-05-09 07:42:00,
2013-05-09 02:52:00,57.0,48.0,29.93,SW,220,0.0,2.0,71,0.00,,,0.00,,2013-05-09 07:52:00,
2013-05-09 03:02:00,58.0,48.0,29.93,SW,220,0.0,1.0,70,0.00,,,0.00,,2013-05-09 08:02:00,
2013-05-09 03:11:00,58.0,48.0,29.93,SW,220,0.0,1.0,70,0.00,,,0.00,,2013-05-09 08:11:00,
2013-05-09 03:21:00,58.0,48.0,29.93,SW,220,0.0,0.0,70,0.00,,,0.00,,2013-05-09 08:21:00,
2013-05-09 03:31:00,58.0,49.0,29.93,SW,220,0.0,0.0,71,0.00,,,0.00,,2013-05-09 08:31:00,
2013-05-09 03:42:00,58.0,49.0,29.93,SW,220,0.0,0.0,71,0.00,,,0.00,,2013-05-09 08:42:00,
2013-05-09 03:52:00,58.0,49.0,29.93,SW,220,0.0,0.0,72,0.00,,,0.00,,2013-05-09 08:52:00,
2013-05-09 04:02:00,58.0,49.0,29.93,SW,220,0.0,0.0,71,0.00,,,0.00,,2013-05-09 09:02:00,
2013-05-09 04:11:00,58.0,49.0,29.93,SW,220,0.0,0.0,71,0.00,,,0.00,,2013-05-09 09:11:00,
2013-05-09 04:21:00,57.0,48.0,29.93,SW,220,0.0,0.0,72,0.00,,,0.00,,2013-05-09 09:21:00,
2013-05-09 04:32:00,57.0,48.0,29.92,SW,219,0.0,0.0,73,0.00,,,0.00,,2013-05-09 09:32:00,
2013-05-09 04:42:00,57.0,48.0,29.92,SW,219,0.0,0.0,73,0.00,,,0.00,,2013-05-09 09:42:00,
2013-05-09 04:53:00,57.0,48.0,29.92,SW,220,0.0,0.0,73,0.00,,,0.00,,2013-05-09 09:53:00,
2013-05-09 05:02:00,57.0,48.0,29.92,SW,219,0.0,0.0,73,0.00,,,0.00,,2013-05-09 10:02:00,
2013-05-09 05:12:00,57.0,48.0,29.92,SW,220,0.0,1.0,73,0.00,,,0.00,,2013-05-09 10:12:00,
2013-05-09 05:22:00,57.0,48.0,29.92,SW,220,0.0,1.0,73,0.00,,,0.00,,2013-05-09 10:22:00,
2013-05-09 05:33:00,57.0,49.0,29.93,SW,220,0.0,0.0,74,0.00,,,0.00,,2013-05-09 10:33:00,
2013-05-09 05:42:00,57.0,49.0,29.93,SW,220,0.0,0.0,74,0.00,,,0.00,,2013-05-09 10:42:00,
2013-05-09 05:52:00,57.0,49.0,29.92,SW,220,0.0,0.0,74,0.00,,,0.00,,2013-05-09 10:52:00,
2013-05-09 06:02:00,56.0,48.0,29.92,SW,219,0.0,0.0,74,0.00,,,0.00,,2013-05-09 11:02:00,
2013-05-09 06:12:00,56.0,48.0,29.93,SW,220,0.0,0.0,75,0.00,,,0.00,,2013-05-09 11:12:00,
2013-05-09 06:22:00,56.0,48.0,29.93,SW,220,0.0,0.0,75,0.00,,,0.00,,2013-05-09 11:22:00,
2013-05-09 06:32:00,55.0,48.0,29.93,SW,219,0.0,0.0,76,0.00,,,0.00,,2013-05-09 11:32:00,
2013-05-09 06:41:00,55.0,48.0,29.93,SW,219,0.0,0.0,76,0.00,,,0.00,,2013-05-09 11:41:00,
2013-05-09 06:52:00,56.0,49.0,29.93,SW,220,0.0,0.0,77,0.00,,,0.00,,2013-05-09 11:52:00,
2013-05-09 07:01:00,56.0,49.0,29.93,SW,220,0.0,0.0,77,0.00,,,0.00,,2013-05-09 12:01:00,
2013-05-09 07:11:00,57.0,49.0,29.93,SW,219,0.0,1.0,75,0.00,,,0.00,,2013-05-09 12:11:00,
2013-05-09 07:22:00,57.0,49.0,29.93,SW,219,0.0,1.0,75,0.00,,,0.00,,2013-05-09 12:22:00,
2013-05-09 07:31:00,59.0,51.0,29.93,SSW,192,3.0,6.0,74,0.00,,,0.00,,2013-05-09 12:31:00,
2013-05-09 07:42:00,59.0,50.0,29.93,South,186,0.0,2.0,72,0.00,,,0.00,,2013-05-09 12:42:00,
2013-05-09 07:52:00,59.0,50.0,29.93,South,186,0.0,2.0,72,0.00,,,0.00,,2013-05-09 12:52:00,
2013-05-09 08:01:00,61.0,51.0,29.93,South,186,0.0,1.0,70,0.00,,,0.00,,2013-05-09 13:01:00,
2013-05-09 08:12:00,61.0,51.0,29.93,South,186,0.0,1.0,70,0.00,,,0.00,,2013-05-09 13:12:00,
2013-05-09 08:21:00,64.0,52.0,29.93,South,186,1.0,2.0,66,0.00,,,0.00,,2013-05-09 13:21:00,
2013-05-09 08:32:00,64.0,52.0,29.92,ENE,75,2.0,5.0,66,0.00,,,0.00,,2013-05-09 13:32:00,
2013-05-09 08:42:00,64.0,52.0,29.92,ENE,75,2.0,5.0,66,0.00,,,0.00,,2013-05-09 13:42:00,
2013-05-09 08:52:00,65.0,53.0,29.92,NE,55,3.0,5.0,65,0.00,,,0.00,,2013-05-09 13:52:00,
2013-05-09 09:01:00,66.0,53.0,29.93,East,94,0.0,4.0,63,0.00,,,0.00,,2013-05-09 14:01:00,
2013-05-09 09:11:00,66.0,53.0,29.93,East,94,0.0,4.0,63,0.00,,,0.00,,2013-05-09 14:11:00,
2013-05-09 09:21:00,66.0,54.0,29.93,SSW,200,1.0,9.0,66,0.00,,,0.00,,2013-05-09 14:21:00,
2013-05-09 09:32:00,66.0,55.0,29.93,WSW,241,1.0,8.0,68,0.00,,,0.00,,2013-05-09 14:32:00,
2013-05-09 09:41:00,66.0,55.0,29.93,WSW,241,1.0,8.0,68,0.00,,,0.00,,2013-05-09 14:41:00,
2013-05-09 09:52:00,66.0,55.0,29.94,SE,146,1.0,8.0,67,0.00,,,0.00,,2013-05-09 14:52:00,
2013-05-09 10:01:00,66.0,55.0,29.94,SSW,200,1.0,9.0,67,0.00,,,0.00,,2013-05-09 15:01:00,
2013-05-09 10:11:00,66.0,55.0,29.94,SSW,200,1.0,9.0,67,0.00,,,0.00,,2013-05-09 15:11:00,
2013-05-09 10:22:00,66.0,55.0,29.93,SSW,200,0.0,2.0,68,0.00,,,0.00,,2013-05-09 15:22:00,
2013-05-09 10:33:00,66.0,55.0,29.93,SSW,200,0.0,2.0,68,0.00,,,0.00,,2013-05-09 15:33:00,
2013-05-09 10:43:00,66.0,55.0,29.92,ENE,76,1.0,3.0,67,0.00,,,0.00,,2013-05-09 15:43:00,
2013-05-09 10:53:00,66.0,55.0,29.92,ENE,76,1.0,3.0,67,0.00,,,0.00,,2013-05-09 15:53:00,
2013-05-09 11:03:00,67.0,55.0,29.92,NE,37,0.0,4.0,66,0.00,,,0.00,,2013-05-09 16:03:00,
2013-05-09 11:12:00,67.0,55.0,29.92,NE,37,0.0,4.0,66,0.00,,,0.00,,2013-05-09 16:12:00,
2013-05-09 11:22:00,67.0,55.0,29.91,NE,45,1.0,3.0,65,0.00,,,0.00,,2013-05-09 16:22:00,
2013-05-09 11:33:00,67.0,54.0,29.91,NNE,26,0.0,6.0,64,0.00,,,0.00,,2013-05-09 16:33:00,
2013-05-09 11:42:00,67.0,54.0,29.91,NNE,26,0.0,6.0,64,0.00,,,0.00,,2013-05-09 16:42:00,
2013-05-09 11:53:00,68.0,54.0,29.91,NNE,22,0.0,2.0,62,0.00,,,0.00,,2013-05-09 16:53:00,
2013-05-09 12:02:00,68.0,55.0,29.92,South,189,6.0,9.0,63,0.00,,,0.00,,2013-05-09 17:02:00,
2013-05-09 12:12:00,68.0,55.0,29.92,South,189,6.0,9.0,63,0.00,,,0.00,,2013-05-09 17:12:00,
2013-05-09 12:21:00,67.0,55.0,29.92,SSW,206,0.0,5.0,66,0.00,,,0.00,,2013-05-09 17:21:00,
2013-05-09 12:32:00,67.0,55.0,29.92,SW,219,1.0,6.0,66,0.00,,,0.00,,2013-05-09 17:32:00,
2013-05-09 12:42:00,67.0,55.0,29.92,SW,219,1.0,6.0,66,0.00,,,0.00,,2013-05-09 17:42:00,
2013-05-09 12:55:00,67.0,56.0,29.93,SW,234,0.0,5.0,68,0.00,,,0.00,,2013-05-09 17:55:00,
2013-05-09 13:01:00,66.0,57.0,29.93,South,186,0.0,5.0,72,0.00,,,0.00,,2013-05-09 18:01:00,
2013-05-09 13:12:00,66.0,57.0,29.93,South,186,0.0,5.0,72,0.00,,,0.00,,2013-05-09 18:12:00,
2013-05-09 13:21:00,65.0,58.0,29.93,West,268,0.0,5.0,77,0.02,,,0.02,,2013-05-09 18:21:00,
2013-05-09 13:31:00,64.0,57.0,29.92,NNW,327,0.0,5.0,79,0.03,,,0.03,,2013-05-09 18:31:00,
2013-05-09 13:42:00,64.0,57.0,29.92,NNW,327,0.0,5.0,79,0.03,,,0.03,,2013-05-09 18:42:00,
2013-05-09 13:52:00,63.0,57.0,29.93,WNW,296,0.0,2.0,82,0.04,,,0.04,,2013-05-09 18:52:00,
2013-05-09 14:01:00,63.0,58.0,29.93,WNW,283,0.0,4.0,84,0.04,,,0.04,,2013-05-09 19:01:00,
2013-05-09 14:12:00,63.0,58.0,29.93,WNW,283,0.0,4.0,84,0.04,,,0.04,,2013-05-09 19:12:00,
2013-05-09 14:21:00,62.0,57.0,29.92,West,276,1.0,4.0,84,0.03,,,0.05,,2013-05-09 19:21:00,
2013-05-09 14:31:00,63.0,59.0,29.92,NW,323,0.0,1.0,86,0.02,,,0.05,,2013-05-09 19:31:00,
2013-05-09 14:41:00,63.0,59.0,29.92,NW,323,0.0,1.0,86,0.02,,,0.05,,2013-05-09 19:41:00,
2013-05-09 14:52:00,63.0,59.0,29.92,NW,324,0.0,2.0,87,0.03,,,0.07,,2013-05-09 19:52:00,
2013-05-09 15:01:00,62.0,58.0,29.91,NW,323,0.0,1.0,88,0.05,,,0.09,,2013-05-09 20:01:00,
2013-05-09 15:11:00,62.0,58.0,29.91,NW,323,0.0,1.0,88,0.05,,,0.09,,2013-05-09 20:11:00,
2013-05-09 15:22:00,62.0,59.0,29.91,NW,324,0.0,1.0,89,0.05,,,0.10,,2013-05-09 20:22:00,
2013-05-09 15:32:00,62.0,59.0,29.91,NNW,336,1.0,5.0,89,0.08,,,0.13,,2013-05-09 20:32:00,
2013-05-09 15:42:00,61.0,58.0,29.90,NNE,26,1.0,5.0,89,0.08,,,0.15,,2013-05-09 20:42:00,
2013-05-09 15:52:00,61.0,58.0,29.90,NNE,26,1.0,5.0,89,0.08,,,0.15,,2013-05-09 20:52:00,
2013-05-09 16:01:00,61.0,58.0,29.90,NE,41,1.0,6.0,90,0.07,,,0.16,,2013-05-09 21:01:00,
2013-05-09 16:11:00,61.0,58.0,29.90,NE,41,1.0,6.0,90,0.07,,,0.16,,2013-05-09 21:11:00,
2013-05-09 16:22:00,60.0,57.0,29.89,North,360,2.0,7.0,91,0.08,,,0.18,,2013-05-09 21:22:00,
2013-05-09 16:32:00,60.0,57.0,29.89,NE,56,2.0,7.0,91,0.07,,,0.20,,2013-05-09 21:32:00,
2013-05-09 16:43:00,59.0,56.0,29.89,NE,51,5.0,7.0,91,0.07,,,0.22,,2013-05-09 21:43:00,
2013-05-09 16:53:00,59.0,56.0,29.89,NE,51,5.0,7.0,91,0.07,,,0.22,,2013-05-09 21:53:00,
2013-05-09 17:03:00,59.0,57.0,29.89,NNE,24,4.0,7.0,92,0.09,,,0.25,,2013-05-09 22:03:00,
2013-05-09 17:12:00,58.0,56.0,29.88,ENE,77,4.0,9.0,92,0.09,,,0.27,,2013-05-09 22:12:00,
2013-05-09 17:22:00,58.0,56.0,29.88,ENE,77,4.0,9.0,92,0.09,,,0.27,,2013-05-09 22:22:00,
2013-05-09 17:33:00,58.0,55.0,29.88,NE,46,7.0,12.0,91,0.08,,,0.28,,2013-05-09 22:33:00,
2013-05-09 17:42:00,53.0,50.0,29.89,ENE,67,7.0,12.0,90,0.07,,,0.29,,2013-05-09 22:42:00,
2013-05-09 17:52:00,53.0,50.0,29.89,ENE,67,7.0,12.0,90,0.07,,,0.29,,2013-05-09 22:52:00,
2013-05-09 18:02:00,52.0,49.0,29.89,NNE,17,4.0,9.0,91,0.05,,,0.30,,2013-05-09 23:02:00,
2013-05-09 18:12:00,51.0,48.0,29.89,NNE,12,6.0,10.0,91,0.03,,,0.30,,2013-05-09 23:12:00,
2013-05-09 18:21:00,51.0,48.0,29.89,NNE,12,6.0,10.0,91,0.03,,,0.30,,2013-05-09 23:21:00,
2013-05-09 18:32:00,51.0,48.0,29.91,NE,55,5.0,9.0,91,0.06,,,0.34,,2013-05-09 23:32:00,
2013-05-09 18:42:00,51.0,48.0,29.89,ENE,63,2.0,9.0,91,0.11,,,0.40,,2013-05-09 23:42:00,
2013-05-09 18:52:00,51.0,48.0,29.89,ENE,63,2.0,9.0,91,0.11,,,0.40,,2013-05-09 23:52:00,
2013-05-09 19:01:00,51.0,49.0,29.88,East,84,5.0,11.0,92,0.14,,,0.44,,2013-05-10 00:01:00,
2013-05-09 19:11:00,51.0,49.0,29.88,ESE,107,6.0,10.0,92,0.17,,,0.47,,2013-05-10 00:11:00,
2013-05-09 19:22:00,51.0,49.0,29.88,ESE,107,6.0,10.0,92,0.17,,,0.47,,2013-05-10 00:22:00,
2013-05-09 19:32:00,51.0,49.0,29.88,NE,53,8.0,12.0,93,0.16,,,0.50,,2013-05-10 00:32:00,
2013-05-09 19:42:00,51.0,49.0,29.88,ENE,57,8.0,14.0,93,0.12,,,0.52,,2013-05-10 00:42:00,
2013-05-09 19:52:00,51.0,49.0,29.88,ENE,57,8.0,14.0,93,0.12,,,0.52,,2013-05-10 00:52:00,
2013-05-09 20:01:00,51.0,49.0,29.88,ENE,57,8.0,14.0,93,0.12,,,0.52,,2013-05-10 01:01:00,
2013-05-09 20:11:00,51.0,49.0,29.89,ENE,77,5.0,13.0,93,0.09,,,0.53,,2013-05-10 01:11:00,
2013-05-09 20:21:00,51.0,49.0,29.89,ENE,77,5.0,13.0,93,0.09,,,0.53,,2013-05-10 01:21:00,
2013-05-09 20:31:00,50.0,48.0,29.89,ENE,71,6.0,13.0,93,0.09,,,0.59,,2013-05-10 01:31:00,
2013-05-09 20:42:00,50.0,48.0,29.90,NE,55,7.0,13.0,93,0.08,,,0.59,,2013-05-10 01:42:00,
2013-05-09 20:52:00,50.0,48.0,29.90,NE,55,7.0,13.0,93,0.08,,,0.59,,2013-05-10 01:52:00,
2013-05-09 21:01:00,50.0,48.0,29.89,NE,51,6.0,13.0,93,0.12,,,0.65,,2013-05-10 02:01:00,
2013-05-09 21:11:00,50.0,48.0,29.90,NE,48,4.0,11.0,93,0.13,,,0.68,,2013-05-10 02:11:00,
2013-05-09 21:21:00,50.0,48.0,29.90,NE,48,4.0,11.0,93,0.13,,,0.68,,2013-05-10 02:21:00,
2013-05-09 21:31:00,50.0,48.0,29.90,NE,53,5.0,12.0,93,0.16,,,0.75,,2013-05-10 02:31:00,
2013-05-09 21:42:00,50.0,48.0,29.91,NNE,27,5.0,9.0,93,0.19,,,0.80,,2013-05-10 02:42:00,
2013-05-09 21:52:00,50.0,48.0,29.91,NNE,27,5.0,9.0,93,0.19,,,0.80,,2013-05-10 02:52:00,
2013-05-09 22:01:00,49.0,47.0,29.91,ENE,61,6.0,11.0,93,0.18,,,0.83,,2013-05-10 03:01:00,
2013-05-09 22:11:00,49.0,47.0,29.91,ENE,61,6.0,11.0,93,0.18,,,0.83,,2013-05-10 03:11:00,
2013-05-09 22:21:00,49.0,47.0,29.90,NE,38,6.0,11.0,93,0.16,,,0.85,,2013-05-10 03:21:00,
2013-05-09 22:33:00,48.0,46.0,29.90,NE,40,4.0,13.0,94,0.12,,,0.87,,2013-05-10 03:33:00,
2013-05-09 22:43:00,48.0,46.0,29.90,NE,40,4.0,13.0,94,0.12,,,0.87,,2013-05-10 03:43:00,
2013-05-09 22:53:00,48.0,46.0,29.89,ENE,59,6.0,12.0,94,0.08,,,0.88,,2013-05-10 03:53:00,
2013-05-09 23:03:00,47.0,45.0,29.88,ENE,71,6.0,14.0,94,0.08,,,0.91,,2013-05-10 04:03:00,
2013-05-09 23:12:00,47.0,45.0,29.88,ENE,71,6.0,14.0,94,0.08,,,0.91,,2013-05-10 04:12:00,
2013-05-09 23:23:00,47.0,45.0,29.88,ENE,75,8.0,15.0,94,0.08,,,0.93,,2013-05-10 04:23:00,
2013-05-09 23:33:00,47.0,45.0,29.88,ENE,72,7.0,13.0,94,0.09,,,0.96,,2013-05-10 04:33:00,
2013-05-09 23:42:00,46.0,44.0,29.88,NE,36,5.0,13.0,94,0.09,,,0.97,,2013-05-10 04:42:00,
2013-05-09 23:53:00,46.0,44.0,29.88,NE,36,5.0,13.0,94,0.09,,,0.97,,2013-05-10 04:53:00,